Airfield :
LOGIN :

Register | Disclaimer

   EN    FR    IT 

 










Legend :    VFR   Marginal VFR   IFR   Intensive IFR   Very Intensive IFR
Visi :
Ceiling :
>= 8 km
>= 3000ft
5 to 8 km
1000 to 3000 ft
1500m to 5 km
500 to 1000 ft
800 to 1500m
200 to 500 ft
< 800m
< 200 ft
Symbols :   Thunderstorms  Fog  Heavy snow  Heavy precipitations  Wind > 20 kt
SIGMETs :     Misc.  Thunderstorms  Icing  Turbulence  Mountain Waves  Volcanic Ashes






- Airport Elevation : 1521 ft
- IATA code : NCY


LFLP - Annecy

CURRENT METAR :
  • 272130Z AUTO 24006KT 9999 FEW047 OVC060 04/M00 Q1015

EXPIRED METARs :
  • 272100Z AUTO VRB02KT 9999 FEW033 BKN064 BKN076 05/00 Q1015
  • 272030Z AUTO 26007KT 230V300 9999 FEW023 05/01 Q1014
  • 272000Z AUTO 27006KT 240V320 9999 FEW033 SCT045 06/01 Q1013 TEMPO VRB15G25KT 4000 SHRA BKN014TCU
  • 271930Z AUTO 28008KT 240V310 9999 FEW037 BKN052 06/02 Q1012 TEMPO VRB15G25KT 4000 SHRA BKN014TCU
  • 271900Z AUTO 29005KT 220V350 9999 SCT027 BKN032 BKN039 05/04 Q1011 TEMPO VRB15G25KT 4000 SHRA SCT014TCU

TAF AMD TAF LFLP
Valid from the 27 at 18:00 until the 28 at 15:00 UTC


271855Z 2718/2815 30010KT 9999 BKN025
TEMPO 2718/2721 VRB15G25KT 4000 SHRA BKN014TCU
BECMG 2801/2803 VRB02KT CAVOK
PROB30 2803/2808 3000 BR



MET'MAP, your aeronautical weather chart ! - Copyright ORBIFLY December 2007 - Disclaimer

ORBIFLY MET'MAP TEAM :

Programming & Development : Alexandra Zaïnal
Concept & original design : Baudouin d'Aumeries
Assistance for programming : Marc-Olivier Méhu
Technical & hardware support : Manuel Goepfert

Contact : metmap@orbifly.com




SOURCES & CREDITS :

   NOAA